createdAt,value
2023-06-22T00:01:25.923Z,5.53
2023-06-22T00:03:52.960Z,6.20
2023-06-22T00:06:20.212Z,6.37
2023-06-22T00:08:48.394Z,5.73
2023-06-22T00:11:15.313Z,5.87
2023-06-22T00:13:42.290Z,5.63
2023-06-22T00:16:09.191Z,5.80
2023-06-22T00:18:36.066Z,6.40
2023-06-22T00:21:02.981Z,5.93
2023-06-22T00:23:29.933Z,5.93
2023-06-22T00:25:56.801Z,6.23
2023-06-22T00:28:23.752Z,5.60
2023-06-22T00:30:51.014Z,6.23
2023-06-22T00:33:18.103Z,5.70
2023-06-22T00:35:45.379Z,5.87
2023-06-22T00:38:12.857Z,5.50
2023-06-22T00:40:39.968Z,5.90
2023-06-22T00:43:07.473Z,6.00
2023-06-22T00:45:34.464Z,5.53
2023-06-22T00:48:02.319Z,5.73
2023-06-22T00:50:36.178Z,6.07
2023-06-22T00:53:10.560Z,5.63
2023-06-22T00:55:40.602Z,5.90
2023-06-22T00:58:11.218Z,5.60
2023-06-22T01:00:39.906Z,6.33
2023-06-22T01:03:10.102Z,5.83
2023-06-22T01:05:38.862Z,5.20
2023-06-22T01:08:45.254Z,5.97
2023-06-22T01:11:47.117Z,6.17
2023-06-22T01:14:27.421Z,5.93
2023-06-22T01:16:57.794Z,4.83
2023-06-22T01:19:47.669Z,5.63
2023-06-22T01:22:18.211Z,5.90
2023-06-22T01:25:00.798Z,5.63
2023-06-22T01:27:30.237Z,5.60
2023-06-22T01:30:01.641Z,6.40
2023-06-22T01:32:35.780Z,5.43
2023-06-22T01:35:07.046Z,5.50
2023-06-22T01:37:36.447Z,5.70
2023-06-22T01:40:06.708Z,5.57
2023-06-22T01:42:34.130Z,5.80
2023-06-22T01:45:01.981Z,5.70
2023-06-22T01:47:29.304Z,5.90
2023-06-22T01:49:56.444Z,5.73
2023-06-22T01:52:23.451Z,5.93
2023-06-22T01:54:50.333Z,5.57
2023-06-22T01:57:17.516Z,6.20
2023-06-22T02:00:06.112Z,6.40
2023-06-22T02:02:48.971Z,5.80
2023-06-22T02:05:19.130Z,5.97
2023-06-22T02:08:00.225Z,6.07
2023-06-22T02:10:29.893Z,5.90
2023-06-22T02:12:58.926Z,5.87
2023-06-22T02:15:26.688Z,6.27
2023-06-22T02:17:53.970Z,5.43
2023-06-22T02:20:21.364Z,5.77
2023-06-22T02:22:48.288Z,5.87
2023-06-22T02:25:15.714Z,6.23
2023-06-22T02:27:42.713Z,5.57
2023-06-22T02:30:10.666Z,6.30
2023-06-22T02:32:37.705Z,5.90
2023-06-22T02:35:05.629Z,5.97
2023-06-22T02:37:33.540Z,6.30
2023-06-22T02:40:00.426Z,6.30
2023-06-22T02:42:27.333Z,6.50
2023-06-22T02:44:54.234Z,5.93
2023-06-22T02:47:21.275Z,7.10
2023-06-22T02:49:48.180Z,6.43
2023-06-22T02:52:15.113Z,6.03
2023-06-22T02:54:42.016Z,5.83
2023-06-22T02:57:14.938Z,6.57
2023-06-22T02:59:42.973Z,6.47
2023-06-22T03:02:10.675Z,6.80
2023-06-22T03:04:37.712Z,6.03
2023-06-22T03:07:04.996Z,6.27
2023-06-22T03:09:33.428Z,6.33
2023-06-22T03:12:00.384Z,7.10
2023-06-22T03:14:27.536Z,6.73
2023-06-22T03:16:54.453Z,6.33
2023-06-22T03:19:22.710Z,6.37
2023-06-22T03:21:49.733Z,7.03
2023-06-22T03:24:16.639Z,6.80
2023-06-22T03:26:43.597Z,6.10
2023-06-22T03:29:10.660Z,6.43
2023-06-22T03:31:37.617Z,7.17
2023-06-22T03:34:04.629Z,6.30
2023-06-22T03:36:31.528Z,7.50
2023-06-22T03:38:58.408Z,7.10
2023-06-22T03:41:26.466Z,6.93
2023-06-22T03:43:53.541Z,6.87
2023-06-22T03:46:21.309Z,6.80
2023-06-22T03:48:48.322Z,6.87
2023-06-22T03:51:15.216Z,7.20
2023-06-22T03:53:42.139Z,6.50
2023-06-22T03:56:09.045Z,7.37
2023-06-22T03:58:37.557Z,6.90
2023-06-22T04:01:04.471Z,6.83
2023-06-22T04:03:31.407Z,7.37
2023-06-22T04:05:58.361Z,6.53
2023-06-22T04:08:25.293Z,6.77
2023-06-22T04:10:52.253Z,7.37
2023-06-22T04:13:19.173Z,7.00
2023-06-22T04:15:46.181Z,7.27
2023-06-22T04:18:14.435Z,6.90
2023-06-22T04:20:41.351Z,6.40
2023-06-22T04:23:08.343Z,6.53
2023-06-22T04:25:35.324Z,6.83
2023-06-22T04:28:04.302Z,6.33
2023-06-22T04:30:32.721Z,6.67
2023-06-22T04:33:00.198Z,6.63
2023-06-22T04:35:27.208Z,6.47
2023-06-22T04:37:56.301Z,6.17
2023-06-22T04:40:26.812Z,6.43
2023-06-22T04:42:55.042Z,5.60
2023-06-22T04:45:22.415Z,5.90
2023-06-22T04:47:50.117Z,6.57
2023-06-22T04:50:18.326Z,6.70
2023-06-22T04:52:46.597Z,5.53
2023-06-22T04:55:15.682Z,6.43
2023-06-22T04:57:45.750Z,6.70
2023-06-22T05:00:14.144Z,6.70
2023-06-22T05:02:42.143Z,7.03
2023-06-22T05:05:09.998Z,5.77
2023-06-22T05:07:37.729Z,5.87
2023-06-22T05:10:06.020Z,6.67
2023-06-22T05:12:33.008Z,6.10
2023-06-22T05:14:59.959Z,5.53
2023-06-22T05:17:27.044Z,6.33
2023-06-22T05:19:54.432Z,5.90
2023-06-22T05:22:21.385Z,6.10
2023-06-22T05:24:48.629Z,5.83
2023-06-22T05:27:15.956Z,5.80
2023-06-22T05:32:28.143Z,6.30
2023-06-22T05:34:55.062Z,5.43
2023-06-22T05:37:22.553Z,6.27
2023-06-22T05:39:49.444Z,5.80
2023-06-22T05:42:16.292Z,6.03
2023-06-22T05:44:43.168Z,5.73
2023-06-22T05:47:10.104Z,5.13
2023-06-22T05:49:36.963Z,6.23
2023-06-22T05:52:04.193Z,6.00
2023-06-22T05:54:31.863Z,5.57
2023-06-22T05:56:58.804Z,5.23
2023-06-22T05:59:25.723Z,4.83
2023-06-22T06:01:52.784Z,5.77
2023-06-22T06:04:20.464Z,5.80
2023-06-22T06:06:50.152Z,6.87
2023-06-22T06:09:17.053Z,6.03
2023-06-22T06:11:43.959Z,6.17
2023-06-22T06:14:10.836Z,5.70
2023-06-22T06:16:37.799Z,4.80
2023-06-22T06:19:04.642Z,5.30
2023-06-22T06:21:31.618Z,5.63
2023-06-22T06:23:59.709Z,5.13
2023-06-22T06:26:30.591Z,5.37
2023-06-22T06:28:58.734Z,5.10
2023-06-22T06:31:25.740Z,5.20
2023-06-22T06:33:52.801Z,4.40
2023-06-22T06:36:19.716Z,5.77
2023-06-22T06:38:48.144Z,5.37
2023-06-22T06:41:17.321Z,5.73
2023-06-22T06:43:44.431Z,5.50
2023-06-22T06:46:11.643Z,5.37
2023-06-22T06:48:38.578Z,5.27
2023-06-22T06:51:05.439Z,4.90
2023-06-22T06:53:32.332Z,4.50
2023-06-22T06:55:59.274Z,5.07
2023-06-22T06:58:26.177Z,5.10
2023-06-22T07:00:53.200Z,4.80
2023-06-22T07:03:20.083Z,4.80
2023-06-22T07:05:47.000Z,4.93
2023-06-22T07:08:13.928Z,4.83
2023-06-22T07:10:40.843Z,4.47
2023-06-22T07:13:07.696Z,4.53
2023-06-22T07:15:34.573Z,4.20
2023-06-22T07:18:01.482Z,5.00
2023-06-22T07:20:28.848Z,4.83
2023-06-22T07:22:55.960Z,4.90
2023-06-22T07:25:22.864Z,4.60
2023-06-22T07:28:05.082Z,4.33
2023-06-22T07:30:34.650Z,4.10
2023-06-22T07:33:05.054Z,4.27
2023-06-22T07:35:32.460Z,4.20
2023-06-22T07:38:00.087Z,4.40
2023-06-22T07:40:28.730Z,4.20
2023-06-22T07:42:55.842Z,4.00
2023-06-22T07:45:22.723Z,3.77
2023-06-22T07:47:49.934Z,4.10
2023-06-22T07:50:16.896Z,4.38
2023-06-22T07:52:43.860Z,4.07
2023-06-22T07:55:10.757Z,4.55
2023-06-22T07:57:37.678Z,4.35
2023-06-22T08:00:16.864Z,4.43
2023-06-22T08:02:46.828Z,4.00
2023-06-22T08:05:21.834Z,4.90
2023-06-22T08:07:51.087Z,4.30
2023-06-22T08:10:18.645Z,4.50
2023-06-22T08:12:45.512Z,3.90
2023-06-22T08:15:12.513Z,5.00
2023-06-22T08:17:40.435Z,4.30
2023-06-22T08:20:14.945Z,4.45
2023-06-22T08:22:42.976Z,4.57
2023-06-22T08:25:10.970Z,4.40
2023-06-22T08:27:38.048Z,4.25
2023-06-22T08:30:05.900Z,5.18
2023-06-22T08:32:34.128Z,4.63
2023-06-22T08:35:01.451Z,4.60
2023-06-22T08:37:32.319Z,4.45
2023-06-22T08:40:02.216Z,4.30
2023-06-22T08:42:29.283Z,4.60
2023-06-22T08:44:57.173Z,5.28
2023-06-22T08:47:24.533Z,4.32
2023-06-22T08:49:51.656Z,4.32
2023-06-22T08:52:21.006Z,4.40
2023-06-22T08:54:48.938Z,4.47
2023-06-22T08:57:17.018Z,4.88
2023-06-22T08:59:44.469Z,3.95
2023-06-22T09:02:11.454Z,4.20
2023-06-22T09:04:38.597Z,4.18
2023-06-22T09:07:06.317Z,4.93
2023-06-22T09:09:33.237Z,4.20
2023-06-22T09:12:00.133Z,4.25
2023-06-22T09:14:27.158Z,5.20
2023-06-22T09:16:54.089Z,5.18
2023-06-22T09:19:21.016Z,4.85
2023-06-22T09:21:47.944Z,4.93
2023-06-22T09:24:14.914Z,4.78
2023-06-22T09:26:41.965Z,4.88
2023-06-22T09:29:08.875Z,4.95
2023-06-22T09:31:35.840Z,4.65
2023-06-22T09:34:02.794Z,4.90
2023-06-22T09:36:29.765Z,4.70
2023-06-22T09:38:57.090Z,4.93
2023-06-22T09:41:24.288Z,5.32
2023-06-22T09:43:53.026Z,4.80
2023-06-22T09:46:23.572Z,5.43
2023-06-22T09:48:50.471Z,4.70
2023-06-22T09:51:18.305Z,4.90
2023-06-22T09:53:45.272Z,4.90
2023-06-22T09:56:15.857Z,4.68
2023-06-22T09:58:47.736Z,5.20
2023-06-22T10:01:17.657Z,4.90
2023-06-22T10:03:44.795Z,4.88
2023-06-22T10:06:11.869Z,4.85
2023-06-22T10:08:40.219Z,4.93
2023-06-22T10:11:07.424Z,4.45
2023-06-22T10:13:34.367Z,5.28
2023-06-22T10:16:01.261Z,4.78
2023-06-22T10:18:28.311Z,5.57
2023-06-22T10:20:55.284Z,5.15
2023-06-22T10:23:22.997Z,5.70
2023-06-22T10:25:49.872Z,4.88
2023-06-22T10:28:17.087Z,4.97
2023-06-22T10:30:44.888Z,5.30
2023-06-22T10:33:13.155Z,5.82
2023-06-22T10:35:40.209Z,5.50
2023-06-22T10:38:07.676Z,4.80
2023-06-22T10:40:34.675Z,5.65
2023-06-22T10:43:01.624Z,4.70
2023-06-22T10:45:29.358Z,4.72
2023-06-22T10:47:56.925Z,5.63
2023-06-22T10:50:25.553Z,4.78
2023-06-22T10:52:52.767Z,5.15
2023-06-22T10:55:19.862Z,4.63
2023-06-22T10:57:48.174Z,4.70
2023-06-22T11:00:16.650Z,4.97
2023-06-22T11:02:44.436Z,5.80
2023-06-22T11:05:11.572Z,4.80
2023-06-22T11:10:14.405Z,5.22
2023-06-22T11:12:41.367Z,5.35
2023-06-22T11:15:09.538Z,5.32
2023-06-22T11:17:36.883Z,4.70
2023-06-22T11:20:10.807Z,4.95
2023-06-22T11:22:42.092Z,4.93
2023-06-22T11:25:10.066Z,5.40
2023-06-22T11:27:37.010Z,5.40
2023-06-22T11:30:05.007Z,5.40
2023-06-22T11:32:31.943Z,5.65
2023-06-22T11:34:58.925Z,5.07
2023-06-22T11:37:25.839Z,5.75
2023-06-22T11:42:26.428Z,5.82
2023-06-22T11:44:53.319Z,5.53
2023-06-22T11:47:20.275Z,5.07
2023-06-22T11:49:47.532Z,5.68
2023-06-22T11:52:14.477Z,4.78
2023-06-22T11:54:41.363Z,5.55
2023-06-22T11:57:08.320Z,5.22
2023-06-22T11:59:35.342Z,5.60
2023-06-22T12:02:02.255Z,4.97
2023-06-22T12:04:29.117Z,5.95
2023-06-22T12:06:55.985Z,5.25
2023-06-22T12:09:22.949Z,6.07
2023-06-22T12:11:49.843Z,5.32
2023-06-22T12:14:16.732Z,5.63
2023-06-22T12:16:44.996Z,5.05
2023-06-22T12:19:12.576Z,5.63
2023-06-22T12:21:41.710Z,5.57
2023-06-22T12:24:08.713Z,6.10
2023-06-22T12:26:35.607Z,5.43
2023-06-22T12:29:02.502Z,6.03
2023-06-22T12:31:29.440Z,5.72
2023-06-22T12:33:56.366Z,5.30
2023-06-22T12:36:23.302Z,5.45
2023-06-22T12:38:50.169Z,5.22
2023-06-22T12:41:17.085Z,4.90
2023-06-22T12:43:44.035Z,5.78
2023-06-22T12:46:10.941Z,5.18
2023-06-22T12:48:42.682Z,5.70
2023-06-22T12:51:11.304Z,5.55
2023-06-22T12:53:38.201Z,5.60
2023-06-22T12:56:05.274Z,5.43
2023-06-22T12:58:32.207Z,5.22
2023-06-22T13:00:59.137Z,5.47
2023-06-22T13:03:27.664Z,5.50
2023-06-22T13:05:55.362Z,5.72
2023-06-22T13:08:22.227Z,4.90
2023-06-22T13:10:49.209Z,5.35
2023-06-22T13:13:16.072Z,5.72
2023-06-22T13:15:42.977Z,5.35
2023-06-22T13:18:09.945Z,5.43
2023-06-22T13:20:37.004Z,5.65
2023-06-22T13:23:03.895Z,5.68
2023-06-22T13:25:30.974Z,6.03
2023-06-22T13:27:57.998Z,5.50
2023-06-22T13:33:10.369Z,5.60
2023-06-22T13:38:21.750Z,5.68
2023-06-22T13:43:33.814Z,5.57
2023-06-22T13:48:45.247Z,6.05
2023-06-22T13:51:12.162Z,5.60
2023-06-22T13:53:39.059Z,5.57
2023-06-22T13:56:05.973Z,5.88
2023-06-22T13:58:33.045Z,5.90
2023-06-22T14:00:59.959Z,5.28
2023-06-22T14:03:27.231Z,5.47
2023-06-22T14:05:56.723Z,5.70
2023-06-22T14:08:41.092Z,5.60
2023-06-22T14:11:08.847Z,5.25
2023-06-22T14:13:36.878Z,5.18
2023-06-22T14:16:05.586Z,5.43
2023-06-22T14:18:32.561Z,5.30
2023-06-22T14:20:59.413Z,5.18
2023-06-22T14:23:26.592Z,6.57
2023-06-22T14:25:53.631Z,5.28
2023-06-22T14:28:20.574Z,5.28
2023-06-22T14:30:47.461Z,5.13
2023-06-22T14:33:14.616Z,5.00
2023-06-22T14:35:41.565Z,5.35
2023-06-22T14:38:08.543Z,5.68
2023-06-22T14:40:43.814Z,5.55
2023-06-22T14:43:20.608Z,5.18
2023-06-22T14:45:47.507Z,5.85
2023-06-22T14:48:14.453Z,5.53
2023-06-22T14:50:41.308Z,5.55
2023-06-22T14:53:08.219Z,5.38
2023-06-22T14:55:35.292Z,5.72
2023-06-22T14:58:02.201Z,6.00
2023-06-22T15:00:29.419Z,5.90
2023-06-22T15:02:56.631Z,5.57
2023-06-22T15:05:25.206Z,5.40
2023-06-22T15:07:52.205Z,5.35
2023-06-22T15:10:19.088Z,5.50
2023-06-22T15:12:45.999Z,5.60
2023-06-22T15:15:12.926Z,5.40
2023-06-22T15:17:39.819Z,5.68
2023-06-22T15:20:08.127Z,6.15
2023-06-22T15:22:36.289Z,5.20
2023-06-22T15:25:04.387Z,6.07
2023-06-22T15:27:31.267Z,5.43
2023-06-22T15:29:58.398Z,5.75
2023-06-22T15:32:26.375Z,5.50
2023-06-22T15:34:54.971Z,5.18
2023-06-22T15:37:22.045Z,5.00
2023-06-22T15:39:49.026Z,6.10
2023-06-22T15:42:16.325Z,5.78
2023-06-22T15:44:43.388Z,5.25
2023-06-22T15:47:10.405Z,4.97
2023-06-22T15:49:38.031Z,5.30
2023-06-22T15:52:05.304Z,5.20
2023-06-22T15:54:32.275Z,5.95
2023-06-22T15:56:59.204Z,6.13
2023-06-22T15:59:26.680Z,5.45
2023-06-22T16:01:53.645Z,5.82
2023-06-22T16:04:20.512Z,5.35
2023-06-22T16:06:47.389Z,5.32
2023-06-22T16:09:15.378Z,5.78
2023-06-22T16:11:42.281Z,5.63
2023-06-22T16:14:10.905Z,5.50
2023-06-22T16:16:37.830Z,5.97
2023-06-22T16:19:04.713Z,5.57
2023-06-22T16:21:31.606Z,5.60
2023-06-22T16:23:58.585Z,5.88
2023-06-22T16:26:25.569Z,5.70
2023-06-22T16:28:53.128Z,5.63
2023-06-22T16:31:20.149Z,5.32
2023-06-22T16:33:47.983Z,6.03
2023-06-22T16:36:15.488Z,5.50
2023-06-22T16:38:42.953Z,5.88
2023-06-22T16:41:10.815Z,5.82
2023-06-22T16:43:41.480Z,6.03
2023-06-22T16:46:08.893Z,6.10
2023-06-22T16:48:38.199Z,5.60
2023-06-22T16:51:05.548Z,5.80
2023-06-22T16:53:32.789Z,5.38
2023-06-22T16:55:59.684Z,5.57
2023-06-22T16:58:27.019Z,6.25
2023-06-22T17:00:55.300Z,5.57
2023-06-22T17:03:30.376Z,5.50
2023-06-22T17:06:01.747Z,5.50
2023-06-22T17:08:35.564Z,5.40
2023-06-22T17:11:02.850Z,5.68
2023-06-22T17:13:29.785Z,5.65
2023-06-22T17:16:00.246Z,6.30
2023-06-22T17:18:27.492Z,5.32
2023-06-22T17:20:54.431Z,5.70
2023-06-22T17:23:22.089Z,5.78
2023-06-22T17:25:52.633Z,5.57
2023-06-22T17:28:22.060Z,5.63
2023-06-22T17:31:10.733Z,5.47
2023-06-22T17:33:40.517Z,5.63
2023-06-22T17:36:14.910Z,5.93
2023-06-22T17:38:42.016Z,5.20
2023-06-22T17:41:10.144Z,5.15
2023-06-22T17:43:47.531Z,5.65
2023-06-22T17:46:16.378Z,6.03
2023-06-22T17:48:48.625Z,6.30
2023-06-22T17:51:16.796Z,6.28
2023-06-22T17:53:50.943Z,5.90
2023-06-22T17:56:22.075Z,4.50
2023-06-22T17:58:55.328Z,3.92
2023-06-22T18:01:39.403Z,3.80
2023-06-22T18:04:15.422Z,3.25
2023-06-22T18:06:45.218Z,3.25
2023-06-22T18:09:17.341Z,2.92
2023-06-22T18:11:51.238Z,4.18
2023-06-22T18:14:20.524Z,4.28
2023-06-22T18:16:52.255Z,4.68
2023-06-22T18:19:20.418Z,4.55
2023-06-22T18:21:49.392Z,5.38
2023-06-22T18:24:20.846Z,5.13
2023-06-22T18:26:48.159Z,4.73
2023-06-22T18:29:15.308Z,5.28
2023-06-22T18:31:43.439Z,5.25
2023-06-22T18:34:14.663Z,5.25
2023-06-22T18:36:52.984Z,5.03
2023-06-22T18:39:21.014Z,4.05
2023-06-22T18:41:53.996Z,3.30
2023-06-22T18:44:25.672Z,2.67
2023-06-22T18:46:57.803Z,3.00
2023-06-22T18:49:33.745Z,2.97
2023-06-22T18:52:06.990Z,2.70
2023-06-22T18:54:50.607Z,2.57
2023-06-22T18:57:33.002Z,2.80
2023-06-22T19:00:11.060Z,4.13
2023-06-22T19:02:53.824Z,3.87
2023-06-22T19:05:42.367Z,3.43
2023-06-22T19:08:14.551Z,4.50
2023-06-22T19:10:43.917Z,3.77
2023-06-22T19:13:21.124Z,4.33
2023-06-22T19:15:52.458Z,3.83
2023-06-22T19:18:24.633Z,3.53
2023-06-22T19:21:13.735Z,4.43
2023-06-22T19:23:42.451Z,3.83
2023-06-22T19:26:13.046Z,4.03
2023-06-22T19:28:53.994Z,3.90
2023-06-22T19:31:23.158Z,4.40
2023-06-22T19:34:06.061Z,4.17
2023-06-22T19:36:36.594Z,4.70
2023-06-22T19:39:05.158Z,5.27
2023-06-22T19:41:35.667Z,4.90
2023-06-22T19:44:02.839Z,4.70
2023-06-22T19:46:33.860Z,4.30
2023-06-22T19:49:01.376Z,3.73
2023-06-22T19:51:35.875Z,4.20
2023-06-22T19:54:12.941Z,4.40
2023-06-22T19:56:40.583Z,4.13
2023-06-22T19:59:11.788Z,4.20
2023-06-22T20:01:41.330Z,4.90
2023-06-22T20:04:10.636Z,5.07
2023-06-22T20:06:39.362Z,4.93
2023-06-22T20:09:07.635Z,5.70
2023-06-22T20:11:36.476Z,5.93
2023-06-22T20:14:04.040Z,6.80
2023-06-22T20:16:31.530Z,6.80
2023-06-22T20:19:13.959Z,5.77
2023-06-22T20:21:42.707Z,4.90
2023-06-22T20:24:12.175Z,5.87
2023-06-22T20:26:44.525Z,5.43
2023-06-22T20:29:27.886Z,5.17
2023-06-22T20:32:13.655Z,5.00
2023-06-22T20:34:48.302Z,4.33
2023-06-22T20:37:23.210Z,4.00
2023-06-22T20:39:50.381Z,3.70
2023-06-22T20:42:18.663Z,3.70
2023-06-22T20:44:51.387Z,4.63
2023-06-22T20:47:21.255Z,4.47
2023-06-22T20:49:49.843Z,6.13
2023-06-22T20:52:18.257Z,6.63
2023-06-22T20:54:45.446Z,6.50
2023-06-22T20:57:12.312Z,6.23
2023-06-22T20:59:39.225Z,6.60
2023-06-22T21:02:06.273Z,6.20
2023-06-22T21:04:34.597Z,5.00
2023-06-22T21:07:02.855Z,5.47
2023-06-22T21:09:38.124Z,5.13
2023-06-22T21:12:10.158Z,4.73
2023-06-22T21:14:37.139Z,5.37
2023-06-22T21:17:04.307Z,5.27
2023-06-22T21:19:31.223Z,4.47
2023-06-22T21:21:58.171Z,4.97
2023-06-22T21:24:25.111Z,5.00
2023-06-22T21:26:52.200Z,4.87
2023-06-22T21:29:19.127Z,4.40
2023-06-22T21:31:46.127Z,4.60
2023-06-22T21:34:13.130Z,4.87
2023-06-22T21:36:40.086Z,4.83
2023-06-22T21:39:07.065Z,5.23
2023-06-22T21:41:34.193Z,5.23
2023-06-22T21:44:01.082Z,5.43
2023-06-22T21:46:28.048Z,4.97
2023-06-22T21:48:55.006Z,4.93
2023-06-22T21:51:22.213Z,5.57
2023-06-22T21:53:49.346Z,5.13
2023-06-22T21:56:16.348Z,5.13
2023-06-22T21:58:43.235Z,5.03
2023-06-22T22:01:10.255Z,5.37
2023-06-22T22:03:37.266Z,4.87
2023-06-22T22:06:04.436Z,4.77
2023-06-22T22:08:31.825Z,5.13
2023-06-22T22:10:58.866Z,5.07
2023-06-22T22:13:27.428Z,5.17
2023-06-22T22:15:54.398Z,5.47
2023-06-22T22:18:21.355Z,5.47
2023-06-22T22:20:48.257Z,5.17
2023-06-22T22:23:15.224Z,5.80
2023-06-22T22:25:42.113Z,5.83
2023-06-22T22:28:09.052Z,5.73
2023-06-22T22:30:36.024Z,5.47
2023-06-22T22:33:02.988Z,5.27
2023-06-22T22:35:30.126Z,5.40
2023-06-22T22:37:57.347Z,4.83
2023-06-22T22:40:24.270Z,5.70
2023-06-22T22:42:51.187Z,5.30
2023-06-22T22:45:18.080Z,6.00
2023-06-22T22:47:45.574Z,5.93
2023-06-22T22:50:12.583Z,6.37
2023-06-22T22:52:39.598Z,6.10
2023-06-22T22:55:14.753Z,6.03
2023-06-22T22:57:41.680Z,5.77
2023-06-22T23:00:13.176Z,6.37
2023-06-22T23:02:41.394Z,5.43
2023-06-22T23:05:08.924Z,5.40
2023-06-22T23:07:35.863Z,5.50
2023-06-22T23:10:02.796Z,6.77
2023-06-22T23:12:29.712Z,5.80
2023-06-22T23:14:56.599Z,5.87
2023-06-22T23:17:23.604Z,5.70
2023-06-22T23:19:52.098Z,5.90
2023-06-22T23:22:19.002Z,5.17
2023-06-22T23:24:47.045Z,5.20
2023-06-22T23:27:16.253Z,5.67
2023-06-22T23:29:45.117Z,4.93
2023-06-22T23:32:12.367Z,4.93
2023-06-22T23:34:39.325Z,5.07
2023-06-22T23:37:06.542Z,4.40
2023-06-22T23:39:34.639Z,4.50
2023-06-22T23:42:01.568Z,5.23
2023-06-22T23:44:28.569Z,5.20
2023-06-22T23:46:58.767Z,4.63
2023-06-22T23:49:26.376Z,4.40
2023-06-22T23:51:53.521Z,4.10
2023-06-22T23:54:20.592Z,3.80
2023-06-22T23:56:47.494Z,3.90
2023-06-22T23:59:14.445Z,3.77
